Time;durP1;ratioP1;P1;durP2;ratioP2;P2;SDS_P1;SDS_P2;PMS_P1;PMS_P2;Temp;Humidity;BMP_temperature;BMP_pressure;BME280_temperature;BME280_humidity;BME280_pressure;Samples;Min_cycle;Max_cycle;Signal;HPM_P1;HPM_P2
2022/03/09 00:01:48;;;;;;;53.03;29.88;;;1.90;99.90;;;;;;5061164;28;20231;-48
2022/03/09 00:04:16;;;;;;;48.80;28.00;;;1.90;99.90;;;;;;5061333;28;20223;-46
2022/03/09 00:06:43;;;;;;;48.78;27.33;;;1.80;99.90;;;;;;5061393;28;20202;-47
2022/03/09 00:09:11;;;;;;;54.75;31.05;;;1.90;99.90;;;;;;5058219;28;20249;-44
2022/03/09 00:11:38;;;;;;;52.55;30.20;;;1.90;99.90;;;;;;5061120;28;20196;-49
2022/03/09 00:14:06;;;;;;;61.83;31.40;;;1.90;99.90;;;;;;5061050;28;20196;-45
2022/03/09 00:16:34;;;;;;;46.13;29.55;;;1.90;99.90;;;;;;5060937;28;20516;-45
2022/03/09 00:19:04;;;;;;;50.67;28.35;;;1.90;99.90;;;;;;5061398;28;20199;-46
2022/03/09 00:21:32;;;;;;;59.40;30.83;;;1.80;99.90;;;;;;5059962;28;20199;-45
2022/03/09 00:23:59;;;;;;;52.30;29.13;;;1.60;99.90;;;;;;5055468;28;20513;-48
2022/03/09 00:26:28;;;;;;;46.65;29.20;;;1.40;99.90;;;;;;5060935;28;20207;-45
2022/03/09 00:28:56;;;;;;;54.65;30.10;;;1.30;99.90;;;;;;5060930;28;20259;-48
2022/03/09 00:31:24;;;;;;;52.20;29.85;;;1.30;99.90;;;;;;5055608;28;20383;-44
2022/03/09 00:33:51;;;;;;;47.22;27.90;;;1.40;99.90;;;;;;5061116;28;20229;-47
2022/03/09 00:36:19;;;;;;;42.53;28.52;;;1.40;99.90;;;;;;5055634;28;20206;-51
2022/03/09 00:38:46;;;;;;;47.08;27.20;;;1.30;99.90;;;;;;5060804;28;20682;-45
2022/03/09 00:41:14;;;;;;;52.45;29.65;;;1.40;99.90;;;;;;5060830;28;20218;-44
2022/03/09 00:43:42;;;;;;;49.30;26.73;;;1.30;99.90;;;;;;5061065;28;20269;-45
2022/03/09 00:46:09;;;;;;;45.95;28.77;;;1.30;99.90;;;;;;5060321;28;20212;-49
2022/03/09 00:48:38;;;;;;;43.70;28.40;;;1.30;99.90;;;;;;5060862;28;20235;-45
2022/03/09 00:51:07;;;;;;;50.67;30.80;;;1.30;99.90;;;;;;5056265;28;20257;-45
2022/03/09 00:53:37;;;;;;;54.42;30.30;;;1.30;99.90;;;;;;5060197;28;20265;-44
2022/03/09 00:56:05;;;;;;;60.25;28.92;;;1.30;99.90;;;;;;5060007;28;20294;-52
2022/03/09 00:58:33;;;;;;;42.58;29.90;;;1.20;99.90;;;;;;5060825;28;20203;-44
2022/03/09 01:01:01;;;;;;;55.70;31.83;;;1.10;99.90;;;;;;5059576;28;20200;-46
2022/03/09 01:03:28;;;;;;;41.60;27.05;;;1.00;99.90;;;;;;5059621;28;20269;-45
2022/03/09 01:05:56;;;;;;;52.17;30.55;;;1.00;99.90;;;;;;5060748;28;20219;-46
2022/03/09 01:08:23;;;;;;;57.85;30.60;;;1.00;99.90;;;;;;5059848;28;20245;-46
2022/03/09 01:10:50;;;;;;;50.25;28.55;;;1.00;99.90;;;;;;5060325;28;20199;-43
2022/03/09 01:13:18;;;;;;;51.15;28.15;;;1.00;99.90;;;;;;5059717;28;20215;-45
2022/03/09 01:15:45;;;;;;;51.83;29.63;;;1.00;99.90;;;;;;5060684;28;20196;-47
2022/03/09 01:18:13;;;;;;;47.08;28.02;;;0.90;99.90;;;;;;5060081;28;20203;-46
2022/03/09 01:20:44;;;;;;;48.80;28.75;;;0.80;99.90;;;;;;5060446;28;20214;-47
2022/03/09 01:23:11;;;;;;;54.35;28.42;;;0.80;99.90;;;;;;5055980;28;20239;-46
2022/03/09 01:25:38;;;;;;;49.28;29.70;;;0.80;99.90;;;;;;5057385;28;20352;-46
2022/03/09 01:28:06;;;;;;;47.85;30.45;;;0.80;99.90;;;;;;5059097;28;20502;-47
2022/03/09 01:30:33;;;;;;;57.35;32.40;;;0.80;99.90;;;;;;5059715;28;20268;-48
2022/03/09 01:33:00;;;;;;;52.75;30.88;;;0.80;99.90;;;;;;5059682;28;20232;-45
2022/03/09 01:35:28;;;;;;;49.83;30.80;;;0.80;99.90;;;;;;5059531;28;20505;-47
2022/03/09 01:37:55;;;;;;;50.33;29.10;;;0.80;99.90;;;;;;5059774;28;20246;-46
2022/03/09 01:40:23;;;;;;;51.08;33.30;;;0.80;99.90;;;;;;5059359;28;20203;-50
2022/03/09 01:42:50;;;;;;;40.88;28.05;;;0.80;99.90;;;;;;5059916;28;20249;-46
2022/03/09 01:45:20;;;;;;;52.63;33.10;;;0.70;99.90;;;;;;5060027;28;20502;-44
2022/03/09 01:47:48;;;;;;;47.35;30.33;;;0.70;99.90;;;;;;5060299;28;20218;-44
2022/03/09 01:50:16;;;;;;;57.00;32.97;;;0.70;99.90;;;;;;5059259;28;20257;-46
2022/03/09 01:52:43;;;;;;;56.75;34.00;;;0.60;99.90;;;;;;5058703;28;20261;-47
2022/03/09 01:55:12;;;;;;;62.15;33.15;;;0.60;99.90;;;;;;5055497;28;20253;-48
2022/03/09 01:57:41;;;;;;;56.55;33.40;;;0.60;99.90;;;;;;5059401;28;20210;-47
2022/03/09 02:00:10;;;;;;;50.25;30.77;;;0.60;99.90;;;;;;5059376;28;20391;-49
2022/03/09 02:02:37;;;;;;;60.72;34.20;;;0.70;99.90;;;;;;5058869;28;20230;-47
2022/03/09 02:05:07;;;;;;;52.03;30.70;;;0.70;99.90;;;;;;5059585;28;20250;-47
2022/03/09 02:10:23;;;;;;;64.95;35.15;;;0.70;99.90;;;;;;5058886;28;20192;-44
2022/03/09 02:12:50;;;;;;;50.42;31.80;;;0.70;99.90;;;;;;5058980;28;20261;-44
2022/03/09 02:15:18;;;;;;;60.40;32.65;;;0.60;99.90;;;;;;5059400;28;20211;-45
2022/03/09 02:17:45;;;;;;;56.25;32.90;;;0.60;99.90;;;;;;5059635;28;20269;-43
2022/03/09 02:20:12;;;;;;;51.15;30.75;;;0.60;99.90;;;;;;5059103;28;20245;-44
2022/03/09 02:22:42;;;;;;;59.35;32.70;;;0.60;99.90;;;;;;5059570;28;20219;-43
2022/03/09 02:25:14;;;;;;;44.25;29.27;;;0.60;99.90;;;;;;5059119;28;20418;-46
2022/03/09 02:27:43;;;;;;;53.20;30.27;;;0.50;99.90;;;;;;5059278;28;20414;-45
2022/03/09 02:30:15;;;;;;;65.03;32.08;;;0.50;99.90;;;;;;5053160;28;20394;-47
2022/03/09 02:32:45;;;;;;;48.70;31.95;;;0.50;99.90;;;;;;5054439;28;20246;-48
2022/03/09 02:35:14;;;;;;;49.58;31.83;;;0.50;99.90;;;;;;5055660;28;20486;-45
2022/03/09 02:37:42;;;;;;;45.53;30.45;;;0.50;99.90;;;;;;5058847;28;20203;-45
2022/03/09 02:40:14;;;;;;;49.20;32.85;;;0.50;99.90;;;;;;5059118;28;20199;-47
2022/03/09 02:42:42;;;;;;;50.38;31.20;;;0.50;99.90;;;;;;5055916;28;20333;-42
2022/03/09 02:45:11;;;;;;;57.80;31.48;;;0.40;99.90;;;;;;5058192;28;20261;-45
2022/03/09 02:47:42;;;;;;;46.58;27.45;;;0.40;99.90;;;;;;5063080;28;20241;-44
2022/03/09 02:50:12;;;;;;;53.00;31.08;;;0.30;99.90;;;;;;5059436;28;20211;-42
2022/03/09 02:52:40;;;;;;;48.67;28.95;;;0.30;99.90;;;;;;5063353;28;20215;-45
2022/03/09 02:55:09;;;;;;;49.05;32.00;;;0.10;99.90;;;;;;5063707;28;20211;-44
2022/03/09 02:57:37;;;;;;;46.05;29.55;;;0.20;99.90;;;;;;5063646;28;20204;-45
2022/03/09 03:00:07;;;;;;;35.97;26.05;;;0.10;99.90;;;;;;5062682;28;20195;-44
2022/03/09 03:02:36;;;;;;;41.38;23.85;;;0.00;99.90;;;;;;5063433;28;20417;-46
2022/03/09 03:05:04;;;;;;;39.55;25.27;;;0.00;99.90;;;;;;5062353;28;20290;-42
2022/03/09 03:07:32;;;;;;;41.33;23.42;;;-0.10;99.90;;;;;;5063272;28;20203;-46
2022/03/09 03:09:59;;;;;;;41.45;23.60;;;-0.10;99.90;;;;;;5062484;28;20196;-45
2022/03/09 03:12:26;;;;;;;39.78;21.77;;;-0.10;99.90;;;;;;5051670;28;20223;-43
2022/03/09 03:14:53;;;;;;;31.50;21.08;;;0.00;99.90;;;;;;5062897;28;20425;-45
2022/03/09 03:17:20;;;;;;;30.60;19.42;;;-0.10;99.90;;;;;;5062399;28;20203;-43
2022/03/09 03:19:48;;;;;;;33.90;20.48;;;-0.10;99.90;;;;;;5062328;28;20191;-43
2022/03/09 03:22:15;;;;;;;35.17;20.98;;;-0.10;99.90;;;;;;5062355;28;20220;-44
2022/03/09 03:24:42;;;;;;;32.80;20.73;;;-0.10;99.90;;;;;;5063587;28;20196;-45
2022/03/09 03:27:09;;;;;;;25.63;17.58;;;-0.10;99.90;;;;;;5066435;28;20195;-47
2022/03/09 03:29:36;;;;;;;28.92;20.02;;;0.10;99.90;;;;;;5064744;28;20195;-43
2022/03/09 03:32:04;;;;;;;29.65;19.67;;;0.30;99.90;;;;;;5061993;28;20234;-45
2022/03/09 03:34:32;;;;;;;32.85;21.05;;;0.30;99.90;;;;;;5062197;28;20255;-44
2022/03/09 03:36:59;;;;;;;29.55;21.80;;;0.40;99.90;;;;;;5062513;28;20448;-44
2022/03/09 03:39:26;;;;;;;24.23;16.25;;;0.50;99.90;;;;;;5061679;28;20211;-44
2022/03/09 03:41:53;;;;;;;30.95;19.23;;;0.40;99.90;;;;;;5062297;28;20220;-45
2022/03/09 03:44:20;;;;;;;28.02;17.33;;;0.20;99.90;;;;;;5061774;28;20516;-44
2022/03/09 03:46:48;;;;;;;32.53;18.88;;;0.20;99.90;;;;;;5062327;28;20257;-45
2022/03/09 03:49:17;;;;;;;30.98;18.27;;;0.10;99.90;;;;;;5061582;28;20382;-44
2022/03/09 03:51:44;;;;;;;28.90;18.45;;;0.30;99.90;;;;;;5061802;28;20196;-46
2022/03/09 03:54:11;;;;;;;34.63;18.63;;;0.30;99.90;;;;;;5057285;28;20425;-46
2022/03/09 03:56:38;;;;;;;34.90;19.50;;;0.30;99.90;;;;;;5061734;28;20203;-46
2022/03/09 03:59:05;;;;;;;29.85;17.83;;;0.40;99.90;;;;;;5060853;28;20200;-48
2022/03/09 04:01:33;;;;;;;29.38;17.10;;;0.40;99.90;;;;;;5062304;28;20499;-43
2022/03/09 04:04:00;;;;;;;26.50;16.80;;;0.20;99.90;;;;;;5061893;28;20223;-47
2022/03/09 04:06:29;;;;;;;33.95;18.98;;;0.10;99.90;;;;;;5056494;28;20223;-45
2022/03/09 04:08:56;;;;;;;27.80;15.27;;;0.00;99.90;;;;;;5061980;28;20227;-44
2022/03/09 04:11:24;;;;;;;34.20;18.77;;;0.10;99.90;;;;;;5058278;28;20241;-46
2022/03/09 04:13:51;;;;;;;25.40;17.85;;;0.20;99.90;;;;;;5061153;28;20426;-45
2022/03/09 04:16:18;;;;;;;27.15;18.13;;;0.30;99.90;;;;;;5061381;28;20226;-49
2022/03/09 04:18:46;;;;;;;29.30;16.35;;;0.30;99.90;;;;;;5061188;28;20267;-44
2022/03/09 04:21:12;;;;;;;31.25;18.25;;;0.30;99.90;;;;;;5061440;28;20245;-46
2022/03/09 04:23:40;;;;;;;21.80;15.40;;;0.10;99.90;;;;;;5060929;28;20261;-47
2022/03/09 04:26:10;;;;;;;26.83;17.98;;;0.00;99.90;;;;;;5061196;28;20220;-47
2022/03/09 04:28:37;;;;;;;34.60;18.02;;;0.10;99.90;;;;;;5060968;28;20499;-50
2022/03/09 04:31:06;;;;;;;36.38;19.58;;;0.30;99.90;;;;;;5061047;28;20530;-46
2022/03/09 04:33:34;;;;;;;28.25;16.95;;;0.40;99.90;;;;;;5060842;28;20257;-45
2022/03/09 04:36:01;;;;;;;28.38;17.60;;;0.30;99.90;;;;;;5061361;28;20468;-44
2022/03/09 04:38:30;;;;;;;27.27;15.32;;;0.30;99.90;;;;;;5056157;28;20494;-46
2022/03/09 04:40:58;;;;;;;22.80;15.55;;;0.30;99.90;;;;;;5060490;28;20502;-50
2022/03/09 04:43:25;;;;;;;24.02;14.73;;;0.40;99.90;;;;;;5060720;28;20517;-48
2022/03/09 04:45:52;;;;;;;24.05;16.63;;;0.60;99.90;;;;;;5059200;28;20227;-46
2022/03/09 04:48:20;;;;;;;26.45;17.67;;;0.50;99.90;;;;;;5060289;28;20204;-45
2022/03/09 04:50:47;;;;;;;21.40;15.05;;;0.80;99.90;;;;;;5060489;28;20195;-45
2022/03/09 04:53:15;;;;;;;26.10;15.73;;;0.80;99.90;;;;;;5060500;28;20434;-50
2022/03/09 04:55:42;;;;;;;21.23;14.02;;;0.80;99.90;;;;;;5060238;28;20211;-46
2022/03/09 04:58:10;;;;;;;30.95;16.90;;;0.90;99.90;;;;;;5060430;28;20371;-47
2022/03/09 05:00:37;;;;;;;25.13;13.95;;;0.90;99.90;;;;;;5059693;28;20200;-48
2022/03/09 05:03:04;;;;;;;17.60;13.20;;;1.00;99.90;;;;;;5051077;28;20474;-44
2022/03/09 05:05:35;;;;;;;26.52;15.23;;;1.00;99.90;;;;;;5041496;28;20224;-45
2022/03/09 05:08:03;;;;;;;24.30;14.85;;;1.00;99.90;;;;;;5039992;28;20408;-46
2022/03/09 05:10:31;;;;;;;26.17;14.20;;;1.10;99.90;;;;;;5040486;28;20189;-43
2022/03/09 05:12:59;;;;;;;35.50;14.18;;;1.20;99.90;;;;;;5040674;28;20255;-45
2022/03/09 05:15:26;;;;;;;22.23;12.90;;;1.30;99.90;;;;;;5044038;28;20220;-45
2022/03/09 05:17:54;;;;;;;24.85;14.60;;;1.30;99.90;;;;;;5055041;28;20246;-46
2022/03/09 05:20:21;;;;;;;20.30;13.50;;;1.30;99.90;;;;;;5052963;28;20256;-45
2022/03/09 05:22:49;;;;;;;30.30;13.93;;;1.50;99.90;;;;;;5055287;28;20457;-48
2022/03/09 05:25:16;;;;;;;18.55;13.23;;;1.50;99.90;;;;;;5049336;28;20498;-46
2022/03/09 05:27:44;;;;;;;19.25;13.93;;;1.90;99.90;;;;;;5050214;28;20258;-44
2022/03/09 05:30:12;;;;;;;21.80;14.15;;;1.80;99.90;;;;;;5020573;28;20197;-45
2022/03/09 05:32:40;;;;;;;28.02;14.38;;;2.10;99.90;;;;;;5021408;28;20447;-48
2022/03/09 05:35:09;;;;;;;23.48;12.63;;;1.80;99.90;;;;;;5020930;28;20267;-48
2022/03/09 05:37:42;;;;;;;17.90;12.98;;;2.00;99.90;;;;;;5020846;28;20201;-44
2022/03/09 05:40:10;;;;;;;22.02;11.48;;;1.90;99.90;;;;;;5028434;28;20326;-49
2022/03/09 05:42:42;;;;;;;25.65;12.18;;;1.90;99.90;;;;;;5047290;28;20286;-47
2022/03/09 05:45:17;;;;;;;16.88;11.25;;;2.20;99.90;;;;;;5051043;28;20318;-50
2022/03/09 05:47:48;;;;;;;19.65;12.60;;;2.20;99.90;;;;;;5052705;28;20214;-43
2022/03/09 05:50:16;;;;;;;18.85;12.40;;;2.20;99.90;;;;;;5055584;28;20204;-46
2022/03/09 05:52:45;;;;;;;20.80;11.60;;;2.20;99.90;;;;;;5058765;28;20253;-45
2022/03/09 05:55:12;;;;;;;16.33;10.50;;;1.90;99.90;;;;;;5044655;28;20506;-47
2022/03/09 05:57:40;;;;;;;32.70;14.88;;;1.70;99.90;;;;;;5061258;28;20206;-46
2022/03/09 06:00:08;;;;;;;20.48;12.20;;;1.60;99.90;;;;;;5060339;28;20200;-45
2022/03/09 06:02:37;;;;;;;20.48;12.20;;;1.90;99.90;;;;;;5059660;28;20223;-46
2022/03/09 06:05:05;;;;;;;22.40;12.85;;;2.00;99.90;;;;;;5057774;28;20212;-46
2022/03/09 06:07:33;;;;;;;20.38;10.95;;;2.00;99.90;;;;;;5040236;28;20290;-44
2022/03/09 06:10:01;;;;;;;19.42;12.18;;;2.00;99.90;;;;;;5038802;28;20381;-48
2022/03/09 06:12:28;;;;;;;19.48;13.25;;;2.10;99.90;;;;;;5039369;28;20274;-45
2022/03/09 06:14:55;;;;;;;20.25;11.93;;;2.30;99.90;;;;;;5038825;28;20204;-45
2022/03/09 06:17:23;;;;;;;21.17;12.25;;;2.20;99.90;;;;;;5038320;28;20258;-46
2022/03/09 06:19:51;;;;;;;19.42;12.05;;;2.30;99.90;;;;;;5038566;28;20200;-47
2022/03/09 06:22:19;;;;;;;29.70;14.10;;;2.30;99.90;;;;;;5038670;28;20228;-48
2022/03/09 06:24:47;;;;;;;28.60;15.20;;;2.50;99.90;;;;;;5039811;28;20280;-45
2022/03/09 06:27:14;;;;;;;31.10;16.20;;;2.60;99.90;;;;;;5038267;28;20306;-47
2022/03/09 06:29:41;;;;;;;25.27;14.93;;;2.60;99.90;;;;;;5047580;28;20196;-47
2022/03/09 06:32:09;;;;;;;30.65;16.15;;;2.60;99.90;;;;;;5058958;28;20220;-49
2022/03/09 06:34:36;;;;;;;29.33;15.40;;;2.70;99.90;;;;;;5059374;28;20196;-46
2022/03/09 06:37:04;;;;;;;19.23;14.80;;;2.80;99.90;;;;;;5054893;28;20432;-46
2022/03/09 06:39:31;;;;;;;26.10;14.75;;;2.70;99.90;;;;;;5036389;28;20205;-45
2022/03/09 06:41:58;;;;;;;27.10;16.48;;;2.80;99.90;;;;;;5036625;28;20263;-48
2022/03/09 06:44:25;;;;;;;22.95;15.23;;;2.90;99.90;;;;;;5044413;28;20204;-44
2022/03/09 06:46:52;;;;;;;26.30;17.30;;;2.90;99.90;;;;;;5050831;28;20224;-43
2022/03/09 06:49:19;;;;;;;28.95;15.98;;;2.70;99.90;;;;;;5058361;28;20243;-47
2022/03/09 06:51:46;;;;;;;30.58;17.05;;;2.50;99.90;;;;;;5043605;28;20197;-44
2022/03/09 06:54:14;;;;;;;32.00;16.02;;;2.60;99.90;;;;;;5054403;28;20195;-45
2022/03/09 06:56:41;;;;;;;26.25;14.60;;;2.70;99.90;;;;;;5042626;28;20201;-45
2022/03/09 06:59:08;;;;;;;26.05;16.27;;;2.70;99.90;;;;;;5040898;28;20208;-46
2022/03/09 07:01:36;;;;;;;24.77;15.32;;;3.10;99.90;;;;;;5051407;28;20197;-44
2022/03/09 07:04:04;;;;;;;26.73;17.23;;;3.60;99.90;;;;;;5058643;28;20345;-46
2022/03/09 07:06:31;;;;;;;22.45;16.30;;;4.50;99.90;;;;;;5057401;28;20233;-45
2022/03/09 07:08:58;;;;;;;22.58;14.95;;;5.80;99.90;;;;;;5051566;28;20205;-45
2022/03/09 07:11:25;;;;;;;26.13;15.13;;;7.20;99.90;;;;;;5056058;28;20276;-45
2022/03/09 07:13:52;;;;;;;27.40;14.20;;;7.90;99.90;;;;;;5058825;28;20220;-44
2022/03/09 07:16:19;;;;;;;22.75;14.10;;;8.00;99.90;;;;;;5055610;28;20405;-49
2022/03/09 07:18:48;;;;;;;20.83;15.13;;;7.70;99.90;;;;;;5057849;28;20200;-43
2022/03/09 07:21:15;;;;;;;18.98;14.13;;;7.70;99.90;;;;;;5057367;28;20337;-43
2022/03/09 07:23:42;;;;;;;25.02;14.10;;;8.30;99.90;;;;;;5058385;28;20443;-43
2022/03/09 07:26:09;;;;;;;22.42;12.93;;;8.60;99.90;;;;;;5059056;28;20273;-44
2022/03/09 07:28:36;;;;;;;22.77;15.05;;;8.30;99.90;;;;;;5052216;28;20236;-43
2022/03/09 07:31:04;;;;;;;19.40;12.88;;;8.50;99.90;;;;;;5060976;28;20203;-44
2022/03/09 07:33:31;;;;;;;23.08;12.80;;;9.00;99.90;;;;;;5054967;28;20627;-45
2022/03/09 07:36:00;;;;;;;25.13;13.93;;;9.90;99.90;;;;;;5060699;28;20403;-43
2022/03/09 07:38:28;;;;;;;20.35;13.77;;;10.40;99.90;;;;;;5062516;28;20268;-46
2022/03/09 07:40:59;;;;;;;20.92;12.57;;;11.60;99.90;;;;;;5062376;28;20216;-49
2022/03/09 07:43:26;;;;;;;21.30;12.43;;;13.00;99.90;;;;;;5058591;28;20234;-47
2022/03/09 07:45:54;;;;;;;19.42;13.38;;;12.90;99.90;;;;;;5052888;28;20199;-45
2022/03/09 07:48:21;;;;;;;17.75;13.35;;;13.10;99.90;;;;;;5061057;28;20204;-44
2022/03/09 07:50:48;;;;;;;17.10;10.52;;;14.40;98.50;;;;;;5061738;28;20195;-47
2022/03/09 07:53:15;;;;;;;23.88;12.85;;;15.90;94.70;;;;;;5053593;28;20212;-47
2022/03/09 07:55:42;;;;;;;16.10;11.23;;;17.00;90.30;;;;;;5061582;28;20242;-48
2022/03/09 07:58:09;;;;;;;15.80;11.73;;;17.00;85.50;;;;;;5061857;28;20420;-48
2022/03/09 08:00:36;;;;;;;20.20;13.67;;;16.80;84.60;;;;;;5061769;28;20406;-45
2022/03/09 08:03:05;;;;;;;16.87;10.70;;;17.10;82.70;;;;;;5061729;28;20632;-46
2022/03/09 08:05:51;;;;;;;16.53;11.20;;;17.30;79.60;;;;;;5061719;28;20411;-46
2022/03/09 08:08:19;;;;;;;12.70;11.03;;;18.20;75.80;;;;;;5061059;28;20594;-49
2022/03/09 08:10:46;;;;;;;14.33;10.50;;;18.60;73.20;;;;;;5061601;28;20460;-46
2022/03/09 08:13:13;;;;;;;12.63;10.43;;;19.00;70.10;;;;;;5060849;28;20437;-46
2022/03/09 08:15:40;;;;;;;11.80;9.20;;;18.20;70.00;;;;;;5061420;28;20474;-45
2022/03/09 08:18:27;;;;;;;16.20;8.93;;;19.10;66.70;;;;;;5061033;28;20629;-43
2022/03/09 08:20:54;;;;;;;13.07;9.30;;;18.30;66.00;;;;;;5061661;28;20457;-45
2022/03/09 08:23:23;;;;;;;15.40;8.20;;;18.40;66.30;;;;;;5061705;28;20460;-47
2022/03/09 08:25:51;;;;;;;11.17;8.60;;;17.20;67.10;;;;;;5062201;28;20644;-47
2022/03/09 08:28:18;;;;;;;11.13;7.17;;;16.60;68.60;;;;;;5061736;28;20514;-45
2022/03/09 08:30:46;;;;;;;11.40;9.10;;;16.00;70.00;;;;;;5061350;28;20410;-46
2022/03/09 08:33:14;;;;;;;15.80;7.27;;;15.10;71.50;;;;;;5061107;28;20437;-45
2022/03/09 08:35:42;;;;;;;9.83;7.10;;;14.80;71.90;;;;;;5061193;28;20876;-44
2022/03/09 08:38:09;;;;;;;12.13;9.43;;;15.00;72.80;;;;;;5061451;28;20442;-49
2022/03/09 08:40:36;;;;;;;8.60;6.13;;;15.70;71.40;;;;;;5060505;28;20435;-46
2022/03/09 08:43:03;;;;;;;13.00;7.40;;;16.10;68.40;;;;;;5060331;28;20439;-45
2022/03/09 08:45:31;;;;;;;10.00;7.10;;;16.30;68.10;;;;;;5060906;28;20439;-50
2022/03/09 08:47:58;;;;;;;10.57;5.83;;;16.60;66.80;;;;;;5060940;28;20511;-44
2022/03/09 08:50:25;;;;;;;9.40;7.33;;;15.70;67.60;;;;;;5060770;28;20410;-49
2022/03/09 08:53:02;;;;;;;9.90;7.13;;;15.40;68.80;;;;;;5060604;28;20425;-47
2022/03/09 08:55:30;;;;;;;7.40;5.80;;;15.00;69.60;;;;;;5060848;28;20786;-44
2022/03/09 08:58:00;;;;;;;8.82;6.35;;;14.90;69.50;;;;;;5061062;28;20479;-47
2022/03/09 09:00:28;;;;;;;12.88;7.55;;;13.80;71.10;;;;;;5060795;28;20256;-45
2022/03/09 09:02:55;;;;;;;12.63;6.80;;;14.10;72.20;;;;;;5061020;28;20221;-44
2022/03/09 09:05:25;;;;;;;10.88;6.75;;;14.20;70.40;;;;;;5060684;28;20201;-45
2022/03/09 09:07:52;;;;;;;9.73;6.40;;;13.40;72.90;;;;;;5052244;28;20235;-46
2022/03/09 09:10:19;;;;;;;10.85;6.00;;;13.80;73.60;;;;;;5055490;28;20272;-45
2022/03/09 09:12:46;;;;;;;8.25;6.18;;;14.80;71.80;;;;;;5057618;28;20223;-45
2022/03/09 09:15:14;;;;;;;9.68;5.93;;;14.90;72.60;;;;;;5060203;28;20243;-49
2022/03/09 09:17:42;;;;;;;12.63;6.87;;;14.80;71.50;;;;;;5060257;28;20580;-49
2022/03/09 09:20:29;;;;;;;8.02;6.18;;;14.30;73.50;;;;;;5059731;28;20486;-43
2022/03/09 09:22:57;;;;;;;8.82;5.22;;;14.40;73.80;;;;;;5060663;28;20523;-47
2022/03/09 09:25:34;;;;;;;7.85;5.95;;;14.10;74.30;;;;;;5060041;28;20604;-49
2022/03/09 09:28:01;;;;;;;7.68;5.95;;;13.60;76.40;;;;;;5060535;28;20239;-45
2022/03/09 09:30:30;;;;;;;13.80;7.45;;;13.60;76.50;;;;;;5060180;28;20394;-45
2022/03/09 09:32:59;;;;;;;10.27;7.35;;;13.00;77.90;;;;;;5059783;28;20468;-50
2022/03/09 09:35:27;;;;;;;9.45;6.15;;;11.80;81.20;;;;;;5060297;28;20391;-48
2022/03/09 09:38:06;;;;;;;11.85;7.93;;;11.20;85.40;;;;;;5060350;28;20214;-46
2022/03/09 09:40:43;;;;;;;9.02;6.40;;;10.50;90.40;;;;;;5060480;28;20203;-50
2022/03/09 09:43:14;;;;;;;8.68;6.40;;;9.70;91.30;;;;;;5060064;28;20271;-48
2022/03/09 09:45:43;;;;;;;8.40;5.70;;;9.40;92.40;;;;;;5058927;28;20470;-49
2022/03/09 09:48:11;;;;;;;9.05;5.80;;;9.50;92.50;;;;;;5059703;28;20221;-47
2022/03/09 09:50:39;;;;;;;12.10;7.88;;;9.40;92.80;;;;;;5060288;28;20555;-45
2022/03/09 09:53:10;;;;;;;9.80;6.13;;;9.10;93.90;;;;;;5059847;28;20221;-47
2022/03/09 09:55:38;;;;;;;7.38;6.47;;;8.70;96.10;;;;;;5060013;28;20208;-45
2022/03/09 09:58:05;;;;;;;11.88;7.72;;;8.70;97.20;;;;;;5060096;28;20200;-46
2022/03/09 10:00:34;;;;;;;13.77;6.60;;;8.90;97.50;;;;;;5059545;28;20192;-46
2022/03/09 10:03:02;;;;;;;11.43;6.72;;;9.00;98.00;;;;;;5059971;28;20221;-47
2022/03/09 10:05:31;;;;;;;12.15;7.10;;;9.10;98.40;;;;;;5059685;28;20225;-48
2022/03/09 10:08:04;;;;;;;8.40;6.28;;;9.10;98.80;;;;;;5059472;28;20446;-45
2022/03/09 10:10:33;;;;;;;9.80;6.40;;;9.10;98.80;;;;;;5059153;28;20520;-49
2022/03/09 10:13:17;;;;;;;7.30;5.47;;;8.80;98.20;;;;;;5059755;28;20224;-50
2022/03/09 10:15:46;;;;;;;11.75;6.07;;;8.70;99.10;;;;;;5059718;28;20203;-45
2022/03/09 10:18:19;;;;;;;6.25;5.00;;;8.80;98.50;;;;;;5059546;28;20272;-47
2022/03/09 10:20:48;;;;;;;5.80;4.93;;;8.80;98.10;;;;;;5059713;28;20200;-49
2022/03/09 10:23:21;;;;;;;8.05;6.22;;;8.70;98.50;;;;;;5059666;28;20273;-50
2022/03/09 10:25:48;;;;;;;7.13;6.05;;;8.70;99.50;;;;;;5059773;28;20201;-47
2022/03/09 10:28:16;;;;;;;5.90;4.85;;;8.80;99.50;;;;;;5058926;28;20224;-49
2022/03/09 10:30:44;;;;;;;10.25;5.15;;;8.80;99.30;;;;;;5050789;28;20456;-45
2022/03/09 10:33:12;;;;;;;8.57;6.28;;;9.00;99.90;;;;;;5019289;28;20261;-49
2022/03/09 10:35:46;;;;;;;10.02;5.78;;;9.00;98.90;;;;;;5019720;28;20453;-43
2022/03/09 10:38:16;;;;;;;7.55;5.78;;;9.10;99.20;;;;;;5019423;28;20406;-46
2022/03/09 10:40:46;;;;;;;6.55;5.00;;;9.00;99.30;;;;;;5020112;28;20206;-49
2022/03/09 10:43:21;;;;;;;13.55;6.13;;;8.90;99.70;;;;;;5019208;28;20244;-49
2022/03/09 10:46:17;;;;;;;6.70;5.03;;;8.80;99.90;;;;;;5020065;28;20202;-52
2022/03/09 10:48:53;;;;;;;6.03;5.35;;;8.90;99.70;;;;;;5018815;28;20229;-45
2022/03/09 10:51:33;;;;;;;5.35;4.30;;;9.00;99.10;;;;;;5046686;28;20407;-46
2022/03/09 10:54:12;;;;;;;5.45;4.18;;;8.90;97.30;;;;;;5057606;28;20218;-46
2022/03/09 10:56:40;;;;;;;5.65;3.88;;;8.90;98.00;;;;;;5060097;28;20228;-44
2022/03/09 10:59:24;;;;;;;6.63;4.40;;;8.90;97.60;;;;;;5059088;28;20197;-44
2022/03/09 11:02:09;;;;;;;12.95;5.75;;;8.90;96.10;;;;;;5058685;28;20323;-44
2022/03/09 11:04:38;;;;;;;5.25;4.40;;;8.90;97.00;;;;;;5060012;28;20200;-48
2022/03/09 11:07:06;;;;;;;13.45;5.30;;;9.00;98.10;;;;;;5063277;28;20229;-45
2022/03/09 11:09:36;;;;;;;9.23;5.65;;;9.10;97.30;;;;;;5062961;28;20532;-48
2022/03/09 11:12:04;;;;;;;7.05;4.85;;;9.10;97.20;;;;;;5062793;28;20393;-45
2022/03/09 11:14:32;;;;;;;8.55;4.78;;;9.10;96.90;;;;;;5062975;28;20244;-47
2022/03/09 11:17:00;;;;;;;4.45;3.80;;;9.10;96.70;;;;;;5062830;28;20201;-47
2022/03/09 11:19:29;;;;;;;6.55;4.65;;;9.10;96.70;;;;;;5062914;28;20208;-48
2022/03/09 11:21:56;;;;;;;5.25;4.68;;;9.00;96.70;;;;;;5062383;28;20221;-50
2022/03/09 11:24:24;;;;;;;6.60;4.60;;;9.00;96.30;;;;;;5062401;28;20212;-45
2022/03/09 11:26:54;;;;;;;5.88;4.43;;;8.90;97.00;;;;;;5053608;28;20251;-49
2022/03/09 11:29:33;;;;;;;8.15;5.25;;;8.90;97.00;;;;;;5061277;28;20196;-47
2022/03/09 11:32:06;;;;;;;7.15;4.75;;;8.90;96.20;;;;;;5058463;28;20243;-44
2022/03/09 11:34:43;;;;;;;6.95;5.63;;;8.90;96.30;;;;;;5052684;28;20201;-44
2022/03/09 11:37:14;;;;;;;7.50;5.30;;;9.00;96.10;;;;;;5046165;28;20256;-51
2022/03/09 11:40:06;;;;;;;8.57;5.22;;;8.90;96.10;;;;;;5061916;28;20346;-48
2022/03/09 11:42:35;;;;;;;6.90;5.65;;;9.10;96.10;;;;;;5061895;28;20489;-46
2022/03/09 11:45:20;;;;;;;10.10;5.57;;;9.10;94.80;;;;;;5062858;28;20271;-47
2022/03/09 11:48:12;;;;;;;8.60;5.85;;;8.90;95.10;;;;;;5062831;28;20231;-44
2022/03/09 11:50:45;;;;;;;7.60;4.93;;;8.70;94.90;;;;;;5062336;28;20196;-47
2022/03/09 11:53:15;;;;;;;10.57;4.93;;;8.60;95.30;;;;;;5062943;28;20224;-49
2022/03/09 11:55:43;;;;;;;7.10;4.88;;;8.60;95.80;;;;;;5062063;28;20499;-46
2022/03/09 11:58:13;;;;;;;8.85;4.85;;;8.60;96.50;;;;;;5062734;28;20207;-47
2022/03/09 12:01:02;;;;;;;8.63;5.93;;;8.60;96.80;;;;;;5062264;28;20320;-48
2022/03/09 12:03:38;;;;;;;8.18;5.45;;;8.50;96.70;;;;;;5061996;28;20767;-47
2022/03/09 12:06:05;;;;;;;7.00;4.82;;;8.50;97.50;;;;;;5061589;28;20203;-45
2022/03/09 12:08:46;;;;;;;5.25;4.03;;;8.80;97.20;;;;;;5061298;28;20270;-46
2022/03/09 12:11:18;;;;;;;6.82;5.32;;;8.90;94.30;;;;;;5061323;28;20431;-51
2022/03/09 12:13:46;;;;;;;8.80;6.20;;;9.10;94.50;;;;;;5055982;28;20220;-46
2022/03/09 12:16:19;;;;;;;9.13;5.93;;;9.10;96.60;;;;;;5052567;28;20204;-52
2022/03/09 12:19:00;;;;;;;7.68;5.95;;;9.10;96.80;;;;;;5058824;28;20232;-47
2022/03/09 12:21:27;;;;;;;9.50;5.45;;;9.10;97.30;;;;;;5041219;28;20531;-45
2022/03/09 12:24:04;;;;;;;9.15;4.95;;;9.10;95.40;;;;;;5050238;28;20292;-44
2022/03/09 12:26:41;;;;;;;6.57;5.43;;;9.00;96.10;;;;;;5049841;28;20458;-46
2022/03/09 12:29:20;;;;;;;8.10;5.32;;;9.10;96.00;;;;;;5061334;28;20282;-52
2022/03/09 12:32:00;;;;;;;10.88;6.47;;;9.10;94.70;;;;;;5061453;28;20198;-45
2022/03/09 12:34:30;;;;;;;6.82;4.63;;;9.10;94.50;;;;;;5061114;28;20208;-43
2022/03/09 12:36:58;;;;;;;4.57;3.83;;;9.10;94.20;;;;;;5061547;28;20532;-44
2022/03/09 12:39:26;;;;;;;7.72;4.72;;;9.20;93.30;;;;;;5061345;28;20211;-47
2022/03/09 12:41:56;;;;;;;4.93;4.47;;;9.10;92.20;;;;;;5061355;28;20219;-45
2022/03/09 12:44:24;;;;;;;8.35;4.60;;;9.10;93.30;;;;;;5061458;28;20205;-51
2022/03/09 12:47:03;;;;;;;5.72;5.22;;;9.00;94.30;;;;;;5061421;28;20227;-48
2022/03/09 12:49:41;;;;;;;7.95;4.50;;;8.90;92.80;;;;;;5061237;28;20204;-45
2022/03/09 12:52:18;;;;;;;5.45;4.35;;;9.10;92.30;;;;;;5061618;28;20534;-48
2022/03/09 12:54:54;;;;;;;5.07;4.38;;;9.10;92.00;;;;;;5061133;28;20208;-51